Fochabers, United Kingdom
Current Conditions -  °F | °C
As of 11:50 AM on Monday 20 Oct 2014 (Local Time) from EGQS Reporting Station
Broken Clouds Broken Clouds  
Wind Chill: 54°   Ceiling: 5000
Heat Index: 54°   Visibility: 6mi
Dew Point: 46°   Wind: 10mph
Humidity: 77%   Direction: 240°WSW
Pressure: 29.62"   Gusts: NA
Location:  57.61°N, 3.1°W
Report Text: EGQS 201050Z 24009KT 9999 FEW020 BKN050 12/08 Q1003 BLU NOSIG
Loading
Personal Weather Stations






























Interactive Weather Map
Tropical Storm Tracking
New forecast layout! Learn more

10-Day Weather Forecast

Advertisements
Track Severe Weather on mobile